sensor_id;sensor_type;location;lat;lon;timestamp;pressure;altitude;pressure_sealevel;temperature;humidity
53715;BME280;39608;55.630;37.864;2023-07-24T00:04:23;98839.59;;;15.03;73.85
53715;BME280;39608;55.630;37.864;2023-07-24T00:09:27;98849.03;;;15.05;73.80
53715;BME280;39608;55.630;37.864;2023-07-24T00:14:29;98835.81;;;14.95;73.69
53715;BME280;39608;55.630;37.864;2023-07-24T00:19:31;98851.41;;;14.82;73.54
53715;BME280;39608;55.630;37.864;2023-07-24T00:24:35;98848.78;;;14.74;73.89
53715;BME280;39608;55.630;37.864;2023-07-24T00:29:37;98842.59;;;14.64;73.77
53715;BME280;39608;55.630;37.864;2023-07-24T00:34:39;98842.88;;;14.50;73.90
53715;BME280;39608;55.630;37.864;2023-07-24T00:39:42;98828.31;;;14.46;73.96
53715;BME280;39608;55.630;37.864;2023-07-24T00:44:44;98834.47;;;14.43;73.82
53715;BME280;39608;55.630;37.864;2023-07-24T00:49:46;98836.31;;;14.51;73.60
53715;BME280;39608;55.630;37.864;2023-07-24T00:54:51;98831.63;;;14.52;73.52
53715;BME280;39608;55.630;37.864;2023-07-24T00:59:53;98831.38;;;14.45;73.52
53715;BME280;39608;55.630;37.864;2023-07-24T01:04:56;98827.41;;;14.42;73.73
53715;BME280;39608;55.630;37.864;2023-07-24T01:10:00;98824.22;;;14.40;73.83
53715;BME280;39608;55.630;37.864;2023-07-24T01:15:08;98823.31;;;14.36;73.70
53715;BME280;39608;55.630;37.864;2023-07-24T01:20:15;98818.06;;;14.31;73.63
53715;BME280;39608;55.630;37.864;2023-07-24T01:25:28;98824.31;;;14.31;73.82
53715;BME280;39608;55.630;37.864;2023-07-24T01:30:34;98823.94;;;14.20;73.77
53715;BME280;39608;55.630;37.864;2023-07-24T01:35:38;98829.16;;;14.13;73.77
53715;BME280;39608;55.630;37.864;2023-07-24T01:40:40;98833.19;;;14.07;73.72
53715;BME280;39608;55.630;37.864;2023-07-24T01:45:44;98821.50;;;14.07;73.71
53715;BME280;39608;55.630;37.864;2023-07-24T01:50:46;98812.53;;;14.06;73.69
53715;BME280;39608;55.630;37.864;2023-07-24T01:55:48;98838.91;;;14.14;73.75
53715;BME280;39608;55.630;37.864;2023-07-24T02:00:54;98827.25;;;14.26;73.44
53715;BME280;39608;55.630;37.864;2023-07-24T02:05:56;98825.44;;;14.30;73.53
53715;BME280;39608;55.630;37.864;2023-07-24T02:10:58;98821.50;;;14.40;73.27
53715;BME280;39608;55.630;37.864;2023-07-24T02:16:02;98818.56;;;14.58;73.28
53715;BME280;39608;55.630;37.864;2023-07-24T02:21:04;98830.00;;;14.72;72.88
53715;BME280;39608;55.630;37.864;2023-07-24T02:26:06;98824.88;;;14.83;72.78
53715;BME280;39608;55.630;37.864;2023-07-24T02:31:11;98832.28;;;14.95;72.55
53715;BME280;39608;55.630;37.864;2023-07-24T02:36:13;98831.16;;;14.96;72.53
53715;BME280;39608;55.630;37.864;2023-07-24T02:41:15;98836.59;;;15.08;72.13
53715;BME280;39608;55.630;37.864;2023-07-24T02:46:18;98836.50;;;15.29;72.02
53715;BME280;39608;55.630;37.864;2023-07-24T02:51:20;98837.28;;;15.42;71.66
53715;BME280;39608;55.630;37.864;2023-07-24T02:56:22;98838.63;;;15.48;71.38
53715;BME280;39608;55.630;37.864;2023-07-24T03:01:26;98852.53;;;15.43;71.69
53715;BME280;39608;55.630;37.864;2023-07-24T03:06:28;98847.31;;;15.38;72.14
53715;BME280;39608;55.630;37.864;2023-07-24T03:11:31;98848.97;;;15.55;71.38
53715;BME280;39608;55.630;37.864;2023-07-24T03:16:34;98851.78;;;15.71;70.93
53715;BME280;39608;55.630;37.864;2023-07-24T03:21:36;98849.75;;;15.80;70.43
53715;BME280;39608;55.630;37.864;2023-07-24T03:26:38;98841.47;;;16.05;70.11
53715;BME280;39608;55.630;37.864;2023-07-24T03:31:42;98849.78;;;16.37;69.30
53715;BME280;39608;55.630;37.864;2023-07-24T03:36:44;98840.53;;;16.57;68.93
53715;BME280;39608;55.630;37.864;2023-07-24T03:41:46;98846.91;;;16.77;68.74
53715;BME280;39608;55.630;37.864;2023-07-24T03:46:49;98843.56;;;17.00;68.34
53715;BME280;39608;55.630;37.864;2023-07-24T03:51:51;98851.34;;;16.98;68.13
53715;BME280;39608;55.630;37.864;2023-07-24T03:56:53;98852.56;;;16.85;68.13
53715;BME280;39608;55.630;37.864;2023-07-24T04:01:56;98852.09;;;16.83;68.03
53715;BME280;39608;55.630;37.864;2023-07-24T04:06:59;98848.78;;;16.89;67.91
53715;BME280;39608;55.630;37.864;2023-07-24T04:12:01;98849.47;;;16.86;67.73
53715;BME280;39608;55.630;37.864;2023-07-24T04:17:05;98847.88;;;16.85;67.80
53715;BME280;39608;55.630;37.864;2023-07-24T04:22:07;98853.59;;;16.80;67.81
53715;BME280;39608;55.630;37.864;2023-07-24T04:27:09;98850.34;;;16.74;67.53
53715;BME280;39608;55.630;37.864;2023-07-24T04:32:12;98852.03;;;16.79;67.41
53715;BME280;39608;55.630;37.864;2023-07-24T04:37:14;98840.56;;;16.89;66.93
53715;BME280;39608;55.630;37.864;2023-07-24T04:42:16;98843.84;;;17.11;66.22
53715;BME280;39608;55.630;37.864;2023-07-24T04:47:20;98840.28;;;17.26;65.85
53715;BME280;39608;55.630;37.864;2023-07-24T04:52:22;98834.97;;;17.34;64.99
53715;BME280;39608;55.630;37.864;2023-07-24T04:57:24;98832.25;;;17.53;64.39
53715;BME280;39608;55.630;37.864;2023-07-24T05:02:27;98833.19;;;17.97;63.25
53715;BME280;39608;55.630;37.864;2023-07-24T05:07:29;98830.91;;;18.41;61.34
53715;BME280;39608;55.630;37.864;2023-07-24T05:12:31;98835.03;;;18.97;60.32
53715;BME280;39608;55.630;37.864;2023-07-24T05:17:35;98836.25;;;19.80;58.08
53715;BME280;39608;55.630;37.864;2023-07-24T05:22:37;98844.81;;;20.43;55.82
53715;BME280;39608;55.630;37.864;2023-07-24T05:27:39;98840.53;;;20.49;55.06
53715;BME280;39608;55.630;37.864;2023-07-24T05:32:42;98834.53;;;21.23;54.10
53715;BME280;39608;55.630;37.864;2023-07-24T05:37:46;98846.13;;;22.38;51.53
53715;BME280;39608;55.630;37.864;2023-07-24T05:42:48;98835.81;;;23.83;45.70
53715;BME280;39608;55.630;37.864;2023-07-24T05:47:51;98832.69;;;23.63;45.76
53715;BME280;39608;55.630;37.864;2023-07-24T05:52:53;98827.66;;;22.96;44.46
53715;BME280;39608;55.630;37.864;2023-07-24T05:57:55;98831.13;;;22.35;45.37
53715;BME280;39608;55.630;37.864;2023-07-24T06:02:59;98839.78;;;22.27;45.79
53715;BME280;39608;55.630;37.864;2023-07-24T06:08:01;98831.03;;;22.10;45.58
53715;BME280;39608;55.630;37.864;2023-07-24T06:13:03;98833.31;;;21.83;45.31
53715;BME280;39608;55.630;37.864;2023-07-24T06:18:06;98842.72;;;21.78;45.91
53715;BME280;39608;55.630;37.864;2023-07-24T06:23:08;98827.63;;;22.60;44.33
53715;BME280;39608;55.630;37.864;2023-07-24T06:28:10;98837.84;;;23.57;42.50
53715;BME280;39608;55.630;37.864;2023-07-24T06:33:14;98839.41;;;24.54;41.08
53715;BME280;39608;55.630;37.864;2023-07-24T06:38:16;98838.34;;;24.97;38.88
53715;BME280;39608;55.630;37.864;2023-07-24T06:43:18;98839.38;;;25.14;38.48
53715;BME280;39608;55.630;37.864;2023-07-24T06:48:21;98840.00;;;24.23;40.02
53715;BME280;39608;55.630;37.864;2023-07-24T06:53:24;98853.28;;;23.54;41.86
53715;BME280;39608;55.630;37.864;2023-07-24T06:58:26;98836.72;;;22.97;42.40
53715;BME280;39608;55.630;37.864;2023-07-24T07:03:29;98841.03;;;23.45;41.39
53715;BME280;39608;55.630;37.864;2023-07-24T07:08:31;98842.63;;;23.49;41.67
53715;BME280;39608;55.630;37.864;2023-07-24T07:13:33;98845.41;;;23.10;42.64
53715;BME280;39608;55.630;37.864;2023-07-24T07:18:37;98845.44;;;22.88;43.86
53715;BME280;39608;55.630;37.864;2023-07-24T07:23:39;98834.34;;;22.48;43.91
53715;BME280;39608;55.630;37.864;2023-07-24T07:28:41;98836.63;;;22.32;44.76
53715;BME280;39608;55.630;37.864;2023-07-24T07:33:44;98839.88;;;22.59;44.67
53715;BME280;39608;55.630;37.864;2023-07-24T07:38:46;98838.69;;;22.53;44.58
53715;BME280;39608;55.630;37.864;2023-07-24T07:43:48;98848.41;;;22.14;45.68
53715;BME280;39608;55.630;37.864;2023-07-24T07:48:52;98844.25;;;21.68;47.34
53715;BME280;39608;55.630;37.864;2023-07-24T07:53:54;98833.97;;;21.58;46.23
53715;BME280;39608;55.630;37.864;2023-07-24T07:58:56;98841.38;;;21.47;46.97
53715;BME280;39608;55.630;37.864;2023-07-24T08:03:59;98840.59;;;21.46;46.98
53715;BME280;39608;55.630;37.864;2023-07-24T08:09:01;98842.38;;;21.83;47.76
53715;BME280;39608;55.630;37.864;2023-07-24T08:14:03;98823.16;;;22.16;46.53
53715;BME280;39608;55.630;37.864;2023-07-24T08:19:07;98831.69;;;21.78;47.29
53715;BME280;39608;55.630;37.864;2023-07-24T08:24:09;98819.78;;;21.60;46.67
53715;BME280;39608;55.630;37.864;2023-07-24T08:29:11;98815.88;;;21.64;47.55
53715;BME280;39608;55.630;37.864;2023-07-24T08:34:14;98822.78;;;21.40;49.51
53715;BME280;39608;55.630;37.864;2023-07-24T08:39:16;98821.75;;;21.00;51.79
53715;BME280;39608;55.630;37.864;2023-07-24T08:44:18;98817.75;;;20.94;50.74
53715;BME280;39608;55.630;37.864;2023-07-24T08:49:26;98822.19;;;21.06;50.55
53715;BME280;39608;55.630;37.864;2023-07-24T08:54:32;98826.16;;;21.12;49.96
53715;BME280;39608;55.630;37.864;2023-07-24T08:59:34;98823.31;;;20.97;51.41
53715;BME280;39608;55.630;37.864;2023-07-24T09:04:38;98816.03;;;21.27;50.37
53715;BME280;39608;55.630;37.864;2023-07-24T09:09:40;98814.56;;;21.44;50.96
53715;BME280;39608;55.630;37.864;2023-07-24T09:14:43;98808.06;;;21.88;49.94
53715;BME280;39608;55.630;37.864;2023-07-24T09:19:55;98814.97;;;22.37;50.04
53715;BME280;39608;55.630;37.864;2023-07-24T09:24:58;98808.19;;;22.13;51.43
53715;BME280;39608;55.630;37.864;2023-07-24T09:30:01;98804.47;;;21.69;51.95
53715;BME280;39608;55.630;37.864;2023-07-24T09:35:17;98797.44;;;21.13;52.86
53715;BME280;39608;55.630;37.864;2023-07-24T09:40:19;98800.81;;;20.47;54.90
53715;BME280;39608;55.630;37.864;2023-07-24T09:45:21;98780.06;;;20.19;55.43
53715;BME280;39608;55.630;37.864;2023-07-24T09:50:25;98780.91;;;19.89;57.05
53715;BME280;39608;55.630;37.864;2023-07-24T09:55:32;98769.19;;;19.65;57.64
53715;BME280;39608;55.630;37.864;2023-07-24T10:00:36;98776.66;;;18.81;59.50
53715;BME280;39608;55.630;37.864;2023-07-24T10:05:40;98765.88;;;18.03;62.94
53715;BME280;39608;55.630;37.864;2023-07-24T10:10:43;98756.41;;;17.81;63.56
53715;BME280;39608;55.630;37.864;2023-07-24T10:15:47;98759.31;;;17.88;64.64
53715;BME280;39608;55.630;37.864;2023-07-24T10:21:00;98749.78;;;18.01;65.04
53715;BME280;39608;55.630;37.864;2023-07-24T10:26:02;98739.59;;;17.82;64.14
53715;BME280;39608;55.630;37.864;2023-07-24T10:31:06;98726.78;;;17.67;64.01
53715;BME280;39608;55.630;37.864;2023-07-24T10:36:11;98719.63;;;17.62;64.14
53715;BME280;39608;55.630;37.864;2023-07-24T10:41:14;98722.09;;;17.67;64.50
53715;BME280;39608;55.630;37.864;2023-07-24T10:46:18;98710.31;;;17.67;64.55
53715;BME280;39608;55.630;37.864;2023-07-24T10:51:21;98713.19;;;17.74;65.19
53715;BME280;39608;55.630;37.864;2023-07-24T10:56:23;98712.50;;;17.77;65.27
53715;BME280;39608;55.630;37.864;2023-07-24T11:01:25;98702.06;;;17.86;65.50
53715;BME280;39608;55.630;37.864;2023-07-24T11:06:30;98704.75;;;18.02;65.22
53715;BME280;39608;55.630;37.864;2023-07-24T11:11:34;98702.78;;;18.03;64.78
53715;BME280;39608;55.630;37.864;2023-07-24T11:16:37;98700.91;;;18.07;65.28
53715;BME280;39608;55.630;37.864;2023-07-24T11:21:50;98694.78;;;18.17;65.54
53715;BME280;39608;55.630;37.864;2023-07-24T11:26:52;98693.22;;;18.16;65.03
53715;BME280;39608;55.630;37.864;2023-07-24T11:31:54;98692.00;;;18.13;64.91
53715;BME280;39608;55.630;37.864;2023-07-24T11:36:58;98689.63;;;18.12;65.08
53715;BME280;39608;55.630;37.864;2023-07-24T11:42:01;98683.22;;;18.04;65.61
53715;BME280;39608;55.630;37.864;2023-07-24T11:47:05;98689.31;;;17.94;65.68
53715;BME280;39608;55.630;37.864;2023-07-24T11:52:09;98680.13;;;17.86;66.71
53715;BME280;39608;55.630;37.864;2023-07-24T11:57:19;98680.13;;;17.86;66.56
53715;BME280;39608;55.630;37.864;2023-07-24T12:02:21;98666.22;;;17.75;66.79
53715;BME280;39608;55.630;37.864;2023-07-24T12:07:29;98662.03;;;17.82;67.54
53715;BME280;39608;55.630;37.864;2023-07-24T12:12:39;98648.78;;;17.87;66.92
53715;BME280;39608;55.630;37.864;2023-07-24T12:17:41;98649.22;;;17.66;67.35
53715;BME280;39608;55.630;37.864;2023-07-24T12:22:45;98639.50;;;17.49;68.05
53715;BME280;39608;55.630;37.864;2023-07-24T12:27:47;98634.41;;;17.28;68.50
53715;BME280;39608;55.630;37.864;2023-07-24T12:32:49;98633.31;;;17.13;69.06
53715;BME280;39608;55.630;37.864;2023-07-24T12:37:53;98632.44;;;17.09;69.48
53715;BME280;39608;55.630;37.864;2023-07-24T12:42:55;98622.94;;;17.03;69.49
53715;BME280;39608;55.630;37.864;2023-07-24T12:47:57;98614.22;;;16.97;69.96
53715;BME280;39608;55.630;37.864;2023-07-24T12:53:02;98606.88;;;17.01;70.24
53715;BME280;39608;55.630;37.864;2023-07-24T12:58:04;98587.75;;;17.05;70.08
53715;BME280;39608;55.630;37.864;2023-07-24T13:03:06;98582.34;;;17.08;69.84
53715;BME280;39608;55.630;37.864;2023-07-24T13:08:09;98578.94;;;17.15;70.55
53715;BME280;39608;55.630;37.864;2023-07-24T13:13:13;98582.97;;;17.21;70.61
53715;BME280;39608;55.630;37.864;2023-07-24T13:18:16;98574.75;;;17.21;70.65
53715;BME280;39608;55.630;37.864;2023-07-24T13:23:21;98592.06;;;17.25;70.56
53715;BME280;39608;55.630;37.864;2023-07-24T13:28:24;98586.50;;;17.22;70.33
53715;BME280;39608;55.630;37.864;2023-07-24T13:33:26;98583.72;;;17.18;70.50
53715;BME280;39608;55.630;37.864;2023-07-24T13:38:29;98569.19;;;17.18;70.67
53715;BME280;39608;55.630;37.864;2023-07-24T13:43:33;98572.25;;;17.13;70.92
53715;BME280;39608;55.630;37.864;2023-07-24T13:48:36;98567.69;;;17.20;70.73
53715;BME280;39608;55.630;37.864;2023-07-24T13:53:40;98560.91;;;17.34;70.60
53715;BME280;39608;55.630;37.864;2023-07-24T13:58:42;98557.84;;;17.39;70.37
53715;BME280;39608;55.630;37.864;2023-07-24T14:03:44;98551.78;;;17.49;70.22
53715;BME280;39608;55.630;37.864;2023-07-24T14:08:47;98542.63;;;17.65;70.05
53715;BME280;39608;55.630;37.864;2023-07-24T14:13:49;98547.09;;;17.73;69.63
53715;BME280;39608;55.630;37.864;2023-07-24T14:18:52;98535.31;;;17.95;69.25
53715;BME280;39608;55.630;37.864;2023-07-24T14:23:55;98530.97;;;18.21;69.16
53715;BME280;39608;55.630;37.864;2023-07-24T14:28:57;98532.44;;;18.42;68.56
53715;BME280;39608;55.630;37.864;2023-07-24T14:33:59;98519.78;;;19.32;68.41
53715;BME280;39608;55.630;37.864;2023-07-24T14:44:04;98501.81;;;20.60;63.86
53715;BME280;39608;55.630;37.864;2023-07-24T14:49:06;98525.00;;;20.52;63.94
53715;BME280;39608;55.630;37.864;2023-07-24T14:54:10;98512.28;;;21.43;62.23
53715;BME280;39608;55.630;37.864;2023-07-24T14:59:12;98518.59;;;22.19;60.17
53715;BME280;39608;55.630;37.864;2023-07-24T15:04:14;98510.53;;;22.79;56.29
53715;BME280;39608;55.630;37.864;2023-07-24T15:09:17;98517.03;;;22.11;58.52
53715;BME280;39608;55.630;37.864;2023-07-24T15:14:19;98502.03;;;21.43;59.16
53715;BME280;39608;55.630;37.864;2023-07-24T15:19:21;98496.03;;;20.87;60.75
53715;BME280;39608;55.630;37.864;2023-07-24T15:24:24;98498.66;;;20.51;61.88
53715;BME280;39608;55.630;37.864;2023-07-24T15:29:26;98489.47;;;20.25;62.60
53715;BME280;39608;55.630;37.864;2023-07-24T15:34:29;98489.06;;;20.23;61.90
53715;BME280;39608;55.630;37.864;2023-07-24T15:39:32;98489.72;;;20.02;62.99
53715;BME280;39608;55.630;37.864;2023-07-24T15:44:34;98478.34;;;20.04;63.00
53715;BME280;39608;55.630;37.864;2023-07-24T15:49:36;98484.66;;;20.08;62.96
53715;BME280;39608;55.630;37.864;2023-07-24T15:54:39;98475.59;;;20.07;62.81
53715;BME280;39608;55.630;37.864;2023-07-24T15:59:41;98470.06;;;20.04;63.03
53715;BME280;39608;55.630;37.864;2023-07-24T16:04:43;98454.78;;;20.13;62.73
53715;BME280;39608;55.630;37.864;2023-07-24T16:09:47;98457.16;;;20.18;62.72
53715;BME280;39608;55.630;37.864;2023-07-24T16:14:49;98458.31;;;20.14;63.23
53715;BME280;39608;55.630;37.864;2023-07-24T16:19:51;98461.44;;;20.09;63.32
53715;BME280;39608;55.630;37.864;2023-07-24T16:24:54;98465.78;;;20.10;63.44
53715;BME280;39608;55.630;37.864;2023-07-24T16:29:56;98468.06;;;20.00;63.56
53715;BME280;39608;55.630;37.864;2023-07-24T16:34:58;98471.97;;;19.92;64.10
53715;BME280;39608;55.630;37.864;2023-07-24T16:40:02;98465.66;;;19.92;64.27
53715;BME280;39608;55.630;37.864;2023-07-24T16:45:06;98460.13;;;19.85;64.53
53715;BME280;39608;55.630;37.864;2023-07-24T16:50:08;98461.22;;;19.76;64.74
53715;BME280;39608;55.630;37.864;2023-07-24T16:55:12;98465.47;;;19.66;65.13
53715;BME280;39608;55.630;37.864;2023-07-24T17:00:14;98468.56;;;19.58;65.25
53715;BME280;39608;55.630;37.864;2023-07-24T17:05:16;98467.69;;;19.50;65.51
53715;BME280;39608;55.630;37.864;2023-07-24T17:10:20;98460.53;;;19.38;65.87
53715;BME280;39608;55.630;37.864;2023-07-24T17:15:22;98453.72;;;19.25;66.23
53715;BME280;39608;55.630;37.864;2023-07-24T17:20:24;98463.13;;;19.20;66.63
53715;BME280;39608;55.630;37.864;2023-07-24T17:25:27;98483.19;;;19.24;66.72
53715;BME280;39608;55.630;37.864;2023-07-24T17:30:30;98484.34;;;19.20;66.83
53715;BME280;39608;55.630;37.864;2023-07-24T17:35:32;98485.88;;;19.17;66.75
53715;BME280;39608;55.630;37.864;2023-07-24T17:40:35;98491.75;;;19.15;67.41
53715;BME280;39608;55.630;37.864;2023-07-24T17:45:38;98481.41;;;19.02;67.46
53715;BME280;39608;55.630;37.864;2023-07-24T17:50:40;98483.31;;;18.97;67.54
53715;BME280;39608;55.630;37.864;2023-07-24T17:55:44;98499.81;;;18.97;67.91
53715;BME280;39608;55.630;37.864;2023-07-24T18:00:46;98493.31;;;18.83;68.04
53715;BME280;39608;55.630;37.864;2023-07-24T18:05:48;98506.59;;;18.77;68.13
53715;BME280;39608;55.630;37.864;2023-07-24T18:10:51;98508.16;;;18.74;67.96
53715;BME280;39608;55.630;37.864;2023-07-24T18:15:53;98502.19;;;18.69;67.94
53715;BME280;39608;55.630;37.864;2023-07-24T18:20:55;98504.09;;;18.64;68.12
53715;BME280;39608;55.630;37.864;2023-07-24T18:25:58;98499.78;;;18.63;68.15
53715;BME280;39608;55.630;37.864;2023-07-24T18:31:00;98501.59;;;18.52;68.21
53715;BME280;39608;55.630;37.864;2023-07-24T18:36:03;98505.47;;;18.47;68.35
53715;BME280;39608;55.630;37.864;2023-07-24T18:41:06;98506.22;;;18.44;68.61
53715;BME280;39608;55.630;37.864;2023-07-24T18:46:08;98492.81;;;18.39;68.63
53715;BME280;39608;55.630;37.864;2023-07-24T18:51:10;98497.06;;;18.33;68.64
53715;BME280;39608;55.630;37.864;2023-07-24T18:56:14;98495.84;;;18.30;68.95
53715;BME280;39608;55.630;37.864;2023-07-24T19:01:16;98502.06;;;18.27;68.89
53715;BME280;39608;55.630;37.864;2023-07-24T19:06:18;98499.28;;;18.24;68.85
53715;BME280;39608;55.630;37.864;2023-07-24T19:11:22;98510.63;;;18.22;69.42
53715;BME280;39608;55.630;37.864;2023-07-24T19:16:24;98503.88;;;18.16;69.31
53715;BME280;39608;55.630;37.864;2023-07-24T19:21:26;98497.13;;;18.10;69.58
53715;BME280;39608;55.630;37.864;2023-07-24T19:26:30;98520.59;;;18.07;69.82
53715;BME280;39608;55.630;37.864;2023-07-24T19:31:32;98514.22;;;18.00;69.67
53715;BME280;39608;55.630;37.864;2023-07-24T19:36:34;98511.78;;;17.94;69.87
53715;BME280;39608;55.630;37.864;2023-07-24T19:41:38;98512.03;;;17.86;70.18
53715;BME280;39608;55.630;37.864;2023-07-24T19:46:40;98510.63;;;17.72;70.21
53715;BME280;39608;55.630;37.864;2023-07-24T19:51:42;98503.94;;;17.70;70.16
53715;BME280;39608;55.630;37.864;2023-07-24T19:56:47;98507.41;;;17.67;70.73
53715;BME280;39608;55.630;37.864;2023-07-24T20:01:49;98504.19;;;17.61;70.59
53715;BME280;39608;55.630;37.864;2023-07-24T20:06:51;98505.78;;;17.62;70.68
53715;BME280;39608;55.630;37.864;2023-07-24T20:11:55;98495.97;;;17.61;70.80
53715;BME280;39608;55.630;37.864;2023-07-24T20:16:57;98486.88;;;17.57;70.65
53715;BME280;39608;55.630;37.864;2023-07-24T20:21:59;98485.25;;;17.52;70.87
53715;BME280;39608;55.630;37.864;2023-07-24T20:27:03;98495.53;;;17.59;71.04
53715;BME280;39608;55.630;37.864;2023-07-24T20:32:06;98475.44;;;17.51;70.93
53715;BME280;39608;55.630;37.864;2023-07-24T20:37:08;98478.25;;;17.55;71.01
53715;BME280;39608;55.630;37.864;2023-07-24T20:42:11;98470.41;;;17.53;71.23
53715;BME280;39608;55.630;37.864;2023-07-24T20:47:16;98462.56;;;17.55;71.04
53715;BME280;39608;55.630;37.864;2023-07-24T20:52:18;98464.25;;;17.60;71.43
53715;BME280;39608;55.630;37.864;2023-07-24T20:57:22;98471.38;;;17.68;71.06
53715;BME280;39608;55.630;37.864;2023-07-24T21:02:25;98469.75;;;17.64;70.96
53715;BME280;39608;55.630;37.864;2023-07-24T21:07:27;98471.13;;;17.50;70.83
53715;BME280;39608;55.630;37.864;2023-07-24T21:12:30;98471.91;;;17.27;71.33
53715;BME280;39608;55.630;37.864;2023-07-24T21:17:32;98462.59;;;17.09;71.63
53715;BME280;39608;55.630;37.864;2023-07-24T21:22:34;98471.41;;;16.99;71.88
53715;BME280;39608;55.630;37.864;2023-07-24T21:27:37;98460.34;;;16.91;72.23
53715;BME280;39608;55.630;37.864;2023-07-24T21:32:39;98470.41;;;16.87;72.37
53715;BME280;39608;55.630;37.864;2023-07-24T21:37:41;98459.13;;;16.89;72.36
53715;BME280;39608;55.630;37.864;2023-07-24T21:42:45;98456.88;;;16.95;72.51
53715;BME280;39608;55.630;37.864;2023-07-24T21:47:47;98464.34;;;16.98;72.47
53715;BME280;39608;55.630;37.864;2023-07-24T21:52:49;98466.00;;;17.02;72.43
53715;BME280;39608;55.630;37.864;2023-07-24T21:57:52;98461.69;;;17.01;72.55
53715;BME280;39608;55.630;37.864;2023-07-24T22:02:55;98464.06;;;17.03;72.58
53715;BME280;39608;55.630;37.864;2023-07-24T22:07:57;98469.09;;;17.01;72.29
53715;BME280;39608;55.630;37.864;2023-07-24T22:13:00;98475.03;;;17.03;72.46
53715;BME280;39608;55.630;37.864;2023-07-24T22:18:03;98469.91;;;17.01;72.22
53715;BME280;39608;55.630;37.864;2023-07-24T22:23:05;98474.44;;;16.93;72.16
53715;BME280;39608;55.630;37.864;2023-07-24T22:28:08;98459.38;;;16.84;72.64
53715;BME280;39608;55.630;37.864;2023-07-24T22:33:10;98455.84;;;16.83;72.51
53715;BME280;39608;55.630;37.864;2023-07-24T22:38:13;98451.16;;;16.84;72.67
53715;BME280;39608;55.630;37.864;2023-07-24T22:43:16;98453.81;;;17.00;73.14
53715;BME280;39608;55.630;37.864;2023-07-24T22:48:18;98462.19;;;17.07;72.45
53715;BME280;39608;55.630;37.864;2023-07-24T22:53:20;98449.56;;;17.02;72.01
53715;BME280;39608;55.630;37.864;2023-07-24T22:58:24;98448.06;;;16.85;72.25
53715;BME280;39608;55.630;37.864;2023-07-24T23:03:26;98451.25;;;16.68;72.60
53715;BME280;39608;55.630;37.864;2023-07-24T23:08:28;98438.50;;;16.56;72.99
53715;BME280;39608;55.630;37.864;2023-07-24T23:13:31;98453.34;;;16.55;73.18
53715;BME280;39608;55.630;37.864;2023-07-24T23:18:33;98460.69;;;16.51;73.19
53715;BME280;39608;55.630;37.864;2023-07-24T23:23:36;98450.53;;;16.51;73.37
53715;BME280;39608;55.630;37.864;2023-07-24T23:28:39;98445.94;;;16.55;73.39
53715;BME280;39608;55.630;37.864;2023-07-24T23:33:41;98433.41;;;16.54;73.35
53715;BME280;39608;55.630;37.864;2023-07-24T23:38:43;98440.88;;;16.57;73.51
53715;BME280;39608;55.630;37.864;2023-07-24T23:43:47;98441.25;;;16.56;73.46
53715;BME280;39608;55.630;37.864;2023-07-24T23:48:49;98440.38;;;16.52;73.23
53715;BME280;39608;55.630;37.864;2023-07-24T23:53:51;98445.78;;;16.48;73.30
53715;BME280;39608;55.630;37.864;2023-07-24T23:58:54;98435.72;;;16.52;73.65
